createdAt,value
2022-09-15T00:02:44.601Z,99199.97
2022-09-15T00:05:47.141Z,99191.09
2022-09-15T00:08:49.919Z,99191.72
2022-09-15T00:11:53.744Z,99192.59
2022-09-15T00:14:56.503Z,99195.75
2022-09-15T00:17:58.967Z,99181.56
2022-09-15T00:21:05.899Z,99181.44
2022-09-15T00:24:09.267Z,99189.78
2022-09-15T00:27:13.064Z,99193.75
2022-09-15T00:30:17.378Z,99203.34
2022-09-15T00:33:21.931Z,99194.56
2022-09-15T00:36:26.422Z,99199.63
2022-09-15T00:39:29.113Z,99194.13
2022-09-15T00:42:33.054Z,99196.78
2022-09-15T00:45:36.464Z,99188.72
2022-09-15T00:48:42.643Z,99182.09
2022-09-15T00:51:50.539Z,99187.97
2022-09-15T00:54:58.807Z,99188.69
2022-09-15T00:58:06.671Z,99188.69
2022-09-15T01:01:10.100Z,99178.34
2022-09-15T01:04:13.443Z,99185.66
2022-09-15T01:07:22.521Z,99188.91
2022-09-15T01:10:27.387Z,99185.03
2022-09-15T01:13:31.600Z,99184.97
2022-09-15T01:16:47.966Z,99184.03
2022-09-15T01:20:38.293Z,99183.78
2022-09-15T01:24:05.375Z,99185.84
2022-09-15T01:27:41.443Z,99188.59
2022-09-15T01:30:51.956Z,99184.72
2022-09-15T01:34:02.592Z,99184.59
2022-09-15T01:37:10.972Z,99192.72
2022-09-15T01:40:16.326Z,99195.03
2022-09-15T01:43:21.460Z,99187.41
2022-09-15T01:46:27.748Z,99189.34
2022-09-15T01:49:35.570Z,99188.72
2022-09-15T01:52:40.846Z,99190.56
2022-09-15T01:55:49.355Z,99189.22
2022-09-15T01:58:52.294Z,99192.00
2022-09-15T02:02:03.154Z,99183.47
2022-09-15T02:05:09.403Z,99182.03
2022-09-15T02:08:19.989Z,99184.31
2022-09-15T02:11:30.335Z,99194.34
2022-09-15T02:14:48.052Z,99188.81
2022-09-15T02:17:54.338Z,99187.47
2022-09-15T02:21:03.916Z,99188.59
2022-09-15T02:24:13.306Z,99188.22
2022-09-15T02:27:22.127Z,99187.28
2022-09-15T02:30:25.193Z,99185.22
2022-09-15T02:33:36.931Z,99184.75
2022-09-15T02:36:42.486Z,99181.72
2022-09-15T02:39:49.664Z,99174.84
2022-09-15T02:42:57.132Z,99174.84
2022-09-15T02:45:59.684Z,99175.00
2022-09-15T02:49:03.629Z,99172.94
2022-09-15T02:52:06.853Z,99169.91
2022-09-15T02:55:10.567Z,99167.88
2022-09-15T02:58:13.030Z,99177.50
2022-09-15T03:01:16.256Z,99176.31
2022-09-15T03:04:20.588Z,99172.22
2022-09-15T03:07:23.514Z,99167.88
2022-09-15T03:10:26.744Z,99168.13
2022-09-15T03:13:29.285Z,99170.06
2022-09-15T03:16:34.432Z,99170.53
2022-09-15T03:19:38.542Z,99174.00
2022-09-15T03:22:41.097Z,99177.00
2022-09-15T03:25:46.614Z,99176.16
2022-09-15T03:28:49.245Z,99175.59
2022-09-15T03:31:51.807Z,99174.00
2022-09-15T03:34:58.567Z,99173.28
2022-09-15T03:38:01.621Z,99172.69
2022-09-15T03:41:07.710Z,99170.66
2022-09-15T03:44:10.187Z,99166.06
2022-09-15T03:47:12.693Z,99162.94
2022-09-15T03:50:18.850Z,99159.72
2022-09-15T03:53:21.348Z,99151.31
2022-09-15T03:56:27.144Z,99152.75
2022-09-15T03:59:29.690Z,99155.63
2022-09-15T04:02:32.207Z,99163.09
2022-09-15T04:05:36.593Z,99158.97
2022-09-15T04:08:39.168Z,99158.97
2022-09-15T04:11:42.725Z,99153.59
2022-09-15T04:14:45.289Z,99156.34
2022-09-15T04:17:48.046Z,99157.31
2022-09-15T04:20:51.860Z,99155.50
2022-09-15T04:23:55.086Z,99161.41
2022-09-15T04:26:57.555Z,99159.56
2022-09-15T04:30:00.033Z,99155.50
2022-09-15T04:33:02.708Z,99155.47
2022-09-15T04:36:08.783Z,99151.66
2022-09-15T04:39:11.336Z,99160.09
2022-09-15T04:42:13.803Z,99148.53
2022-09-15T04:45:16.484Z,99153.44
2022-09-15T04:48:19.105Z,99151.13
2022-09-15T04:51:24.243Z,99157.03
2022-09-15T04:54:26.826Z,99149.09
2022-09-15T04:57:29.294Z,99149.41
2022-09-15T05:00:33.419Z,99151.69
2022-09-15T05:03:38.404Z,99149.97
2022-09-15T05:06:42.233Z,99154.84
2022-09-15T05:09:44.723Z,99148.97
2022-09-15T05:12:47.272Z,99152.94
2022-09-15T05:15:49.778Z,99152.03
2022-09-15T05:18:54.280Z,99148.13
2022-09-15T05:21:58.087Z,99151.28
2022-09-15T05:25:00.572Z,99145.75
2022-09-15T05:28:03.611Z,99145.94
2022-09-15T05:31:10.495Z,99148.44
2022-09-15T05:34:13.102Z,99153.66
2022-09-15T05:37:16.952Z,99151.38
2022-09-15T05:40:21.866Z,99151.56
2022-09-15T05:43:24.394Z,99148.47
2022-09-15T05:46:27.664Z,99146.13
2022-09-15T05:49:31.232Z,99158.94
2022-09-15T05:52:35.200Z,99157.06
2022-09-15T05:55:38.607Z,99155.94
2022-09-15T05:58:42.675Z,99160.28
2022-09-15T06:01:45.461Z,99162.41
2022-09-15T06:04:48.065Z,99166.47
2022-09-15T06:07:53.562Z,99160.53
2022-09-15T06:10:56.140Z,99158.59
2022-09-15T06:14:00.951Z,99163.31
2022-09-15T06:17:03.454Z,99162.72
2022-09-15T06:20:07.524Z,99161.75
2022-09-15T06:23:11.359Z,99159.94
2022-09-15T06:26:16.701Z,99165.78
2022-09-15T06:29:19.447Z,99163.53
2022-09-15T06:32:21.926Z,99174.22
2022-09-15T06:35:24.409Z,99175.38
2022-09-15T06:38:28.230Z,99173.16
2022-09-15T06:41:42.639Z,99172.44
2022-09-15T06:44:53.255Z,99181.81
2022-09-15T06:48:20.209Z,99175.38
2022-09-15T06:51:19.664Z,99177.50
2022-09-15T06:54:23.611Z,99183.34
2022-09-15T06:57:26.101Z,99190.50
2022-09-15T07:00:29.638Z,99198.16
2022-09-15T07:03:32.803Z,99186.00
2022-09-15T07:06:35.593Z,99191.94
2022-09-15T07:09:41.273Z,99190.56
2022-09-15T07:12:44.119Z,99189.88
2022-09-15T07:15:52.229Z,99195.31
2022-09-15T07:18:56.899Z,99197.41
2022-09-15T07:21:59.372Z,99195.53
2022-09-15T07:25:03.210Z,99195.38
2022-09-15T07:28:05.711Z,99186.44
2022-09-15T07:31:10.824Z,99182.88
2022-09-15T07:34:13.479Z,99192.03
2022-09-15T07:37:16.090Z,99197.03
2022-09-15T07:40:19.992Z,99199.97
2022-09-15T07:43:22.547Z,99213.25
2022-09-15T07:46:26.733Z,99205.78
2022-09-15T07:49:29.442Z,99209.03
2022-09-15T07:52:31.983Z,99215.84
2022-09-15T07:55:35.819Z,99222.88
2022-09-15T07:58:38.407Z,99229.66
2022-09-15T08:01:40.947Z,99235.56
2022-09-15T08:04:43.484Z,99228.53
2022-09-15T08:07:46.289Z,99230.59
2022-09-15T08:10:50.111Z,99228.59
2022-09-15T08:13:53.314Z,99228.88
2022-09-15T08:16:55.799Z,99232.69
2022-09-15T08:19:58.417Z,99227.78
2022-09-15T08:23:00.949Z,99232.56
2022-09-15T08:26:09.637Z,99228.75
2022-09-15T08:29:14.531Z,99239.47
2022-09-15T08:32:17.034Z,99241.06
2022-09-15T08:35:20.206Z,99245.34
2022-09-15T08:38:22.757Z,99248.66
2022-09-15T08:41:30.718Z,99238.63
2022-09-15T08:44:39.760Z,99239.88
2022-09-15T08:47:46.505Z,99232.84
2022-09-15T08:50:52.975Z,99241.59
2022-09-15T08:54:00.457Z,99239.72
2022-09-15T08:57:06.673Z,99236.72
2022-09-15T09:00:15.431Z,99244.13
2022-09-15T09:03:42.160Z,99243.94
2022-09-15T09:06:58.953Z,99244.84
2022-09-15T09:10:08.277Z,99250.91
2022-09-15T09:13:21.998Z,99249.69
2022-09-15T09:16:40.665Z,99246.31
2022-09-15T09:19:58.626Z,99246.09
2022-09-15T09:23:03.017Z,99243.94
2022-09-15T09:26:10.353Z,99239.75
2022-09-15T09:29:19.399Z,99232.38
2022-09-15T09:32:25.440Z,99244.50
2022-09-15T09:35:35.506Z,99245.75
2022-09-15T09:38:40.713Z,99244.06
2022-09-15T09:41:43.800Z,99247.59
2022-09-15T09:44:48.378Z,99247.47
2022-09-15T09:47:51.024Z,99247.25
2022-09-15T09:50:54.949Z,99251.84
2022-09-15T09:53:57.647Z,99257.59
2022-09-15T09:57:22.998Z,99252.94
2022-09-15T10:00:34.970Z,99245.50
2022-09-15T10:03:37.854Z,99234.50
2022-09-15T10:06:41.456Z,99232.44
2022-09-15T10:09:52.522Z,99237.38
2022-09-15T10:12:57.082Z,99233.66
2022-09-15T10:16:03.260Z,99231.13
2022-09-15T10:19:06.189Z,99237.50
2022-09-15T10:22:08.733Z,99228.66
2022-09-15T10:25:49.396Z,99230.63
2022-09-15T10:29:12.547Z,99239.19
2022-09-15T10:32:26.655Z,99244.41
2022-09-15T10:35:33.714Z,99244.00
2022-09-15T10:38:44.043Z,99235.97
2022-09-15T10:41:53.057Z,99242.88
2022-09-15T10:45:08.352Z,99238.41
2022-09-15T10:48:32.856Z,99239.34
2022-09-15T10:51:47.081Z,99245.69
2022-09-15T10:55:04.934Z,99244.34
2022-09-15T10:58:24.665Z,99237.38
2022-09-15T11:01:42.845Z,99239.22
2022-09-15T11:05:04.764Z,99237.47
2022-09-15T11:08:17.966Z,99253.22
2022-09-15T11:11:28.699Z,99248.16
2022-09-15T11:14:44.388Z,99256.25
2022-09-15T11:18:00.907Z,99254.34
2022-09-15T11:21:29.534Z,99256.84
2022-09-15T11:24:40.738Z,99247.84
2022-09-15T11:27:48.633Z,99243.47
2022-09-15T11:30:57.611Z,99251.91
2022-09-15T11:34:05.834Z,99238.84
2022-09-15T11:37:16.273Z,99230.31
2022-09-15T11:40:24.455Z,99235.84
2022-09-15T11:43:34.934Z,99242.13
2022-09-15T11:46:51.738Z,99238.88
2022-09-15T11:49:58.189Z,99233.84
2022-09-15T11:53:09.402Z,99235.59
2022-09-15T11:56:19.526Z,99239.84
2022-09-15T11:59:28.913Z,99240.75
2022-09-15T12:02:37.884Z,99238.13
2022-09-15T12:05:47.098Z,99231.50
2022-09-15T12:08:54.502Z,99238.06
2022-09-15T12:12:03.025Z,99232.53
2022-09-15T12:15:06.530Z,99240.34
2022-09-15T12:18:37.335Z,99238.09
2022-09-15T12:21:51.813Z,99237.75
2022-09-15T12:25:01.349Z,99232.63
2022-09-15T12:28:28.183Z,99238.69
2022-09-15T12:31:38.608Z,99238.63
2022-09-15T12:34:41.376Z,99231.94
2022-09-15T12:37:47.960Z,99231.00
2022-09-15T12:40:58.962Z,99235.53
2022-09-15T12:44:07.743Z,99235.19
2022-09-15T12:47:21.265Z,99206.69
2022-09-15T12:50:28.601Z,99215.94
2022-09-15T12:56:53.242Z,99232.28
2022-09-15T13:00:27.579Z,99228.00
2022-09-15T13:04:08.262Z,99238.31
2022-09-15T13:11:11.718Z,99220.41
2022-09-15T13:14:23.600Z,99221.81
2022-09-15T13:17:26.925Z,99221.72
2022-09-15T13:20:36.381Z,99218.28
2022-09-15T13:23:42.451Z,99223.06
2022-09-15T13:26:51.913Z,99211.97
2022-09-15T13:30:03.837Z,99217.66
2022-09-15T13:33:25.025Z,99207.84
2022-09-15T13:40:27.357Z,99209.78
2022-09-15T13:44:17.896Z,99212.47
2022-09-15T13:47:30.894Z,99211.50
2022-09-15T13:50:38.284Z,99200.53
2022-09-15T13:53:49.423Z,99203.56
2022-09-15T13:56:53.254Z,99210.53
2022-09-15T13:59:57.117Z,99201.16
2022-09-15T14:03:02.553Z,99203.91
2022-09-15T14:06:13.033Z,99196.50
2022-09-15T14:09:19.149Z,99183.50
2022-09-15T14:12:21.684Z,99189.28
2022-09-15T14:15:26.558Z,99189.50
2022-09-15T14:18:30.196Z,99190.13
2022-09-15T14:21:34.741Z,99190.00
2022-09-15T14:24:41.172Z,99192.72
2022-09-15T14:27:46.376Z,99198.22
2022-09-15T14:30:50.304Z,99194.19
2022-09-15T14:33:53.021Z,99207.69
2022-09-15T14:37:02.505Z,99220.81
2022-09-15T14:40:21.204Z,99242.25
2022-09-15T14:43:28.954Z,99248.59
2022-09-15T14:46:38.890Z,99242.06
2022-09-15T14:49:41.560Z,99239.69
2022-09-15T14:52:48.183Z,99235.84
2022-09-15T14:55:55.564Z,99233.66
2022-09-15T14:59:02.482Z,99226.13
2022-09-15T15:02:24.567Z,99227.09
2022-09-15T15:05:31.965Z,99233.00
2022-09-15T15:08:39.620Z,99234.25
2022-09-15T15:11:43.016Z,99230.72
2022-09-15T15:14:45.790Z,99237.13
2022-09-15T15:17:51.656Z,99221.31
2022-09-15T15:20:54.128Z,99228.88
2022-09-15T15:23:56.758Z,99225.75
2022-09-15T15:27:26.233Z,99237.22
2022-09-15T15:30:43.908Z,99229.66
2022-09-15T15:33:49.260Z,99237.47
2022-09-15T15:36:51.782Z,99220.22
2022-09-15T15:39:55.981Z,99226.31
2022-09-15T15:43:04.423Z,99231.88
2022-09-15T15:46:07.631Z,99218.00
2022-09-15T15:49:13.160Z,99223.00
2022-09-15T15:52:15.740Z,99217.78
2022-09-15T15:55:19.737Z,99220.41
2022-09-15T15:58:23.098Z,99220.72
2022-09-15T16:01:25.782Z,99217.38
2022-09-15T16:04:30.076Z,99215.41
2022-09-15T16:07:33.627Z,99221.28
2022-09-15T16:10:41.573Z,99226.84
2022-09-15T16:13:44.184Z,99224.47
2022-09-15T16:16:46.704Z,99220.41
2022-09-15T16:19:50.674Z,99221.97
2022-09-15T16:22:53.313Z,99223.00
2022-09-15T16:25:59.464Z,99217.25
2022-09-15T16:29:01.968Z,99212.91
2022-09-15T16:32:07.037Z,99222.13
2022-09-15T16:35:22.194Z,99215.25
2022-09-15T16:38:28.150Z,99221.19
2022-09-15T16:41:30.653Z,99215.50
2022-09-15T16:44:33.151Z,99217.03
2022-09-15T16:47:35.670Z,99222.78
2022-09-15T16:50:50.299Z,99220.16
2022-09-15T16:53:58.451Z,99228.56
2022-09-15T16:57:00.924Z,99225.13
2022-09-15T17:00:04.392Z,99224.84
2022-09-15T17:03:08.826Z,99226.78
2022-09-15T17:06:15.618Z,99222.06
2022-09-15T17:09:18.096Z,99227.94
2022-09-15T17:12:22.093Z,99219.97
2022-09-15T17:15:27.741Z,99226.53
2022-09-15T17:18:30.548Z,99221.50
2022-09-15T17:21:34.361Z,99218.00
2022-09-15T17:24:36.916Z,99230.47
2022-09-15T17:27:39.481Z,99230.31
2022-09-15T17:30:42.678Z,99241.78
2022-09-15T17:33:46.186Z,99239.97
2022-09-15T17:36:50.176Z,99247.25
2022-09-15T17:39:58.250Z,99248.66
2022-09-15T17:43:01.702Z,99250.75
2022-09-15T17:46:04.242Z,99254.94
2022-09-15T17:49:06.841Z,99260.84
2022-09-15T17:52:11.856Z,99254.53
2022-09-15T17:55:18.451Z,99247.97
2022-09-15T17:58:21.753Z,99239.69
2022-09-15T18:01:24.354Z,99229.69
2022-09-15T18:04:26.938Z,99237.34
2022-09-15T18:07:31.342Z,99238.84
2022-09-15T18:10:36.517Z,99244.13
2022-09-15T18:13:39.002Z,99250.22
2022-09-15T18:16:42.512Z,99238.00
2022-09-15T18:19:45.005Z,99245.81
2022-09-15T18:22:49.476Z,99257.81
2022-09-15T18:25:52.575Z,99252.94
2022-09-15T18:28:56.421Z,99251.88
2022-09-15T18:31:59.274Z,99258.41
2022-09-15T18:35:01.762Z,99265.75
2022-09-15T18:38:05.586Z,99269.22
2022-09-15T18:41:11.727Z,99275.53
2022-09-15T18:44:14.196Z,99282.22
2022-09-15T18:47:16.672Z,99275.63
2022-09-15T18:50:21.002Z,99274.78
2022-09-15T18:53:24.838Z,99269.13
2022-09-15T18:56:27.305Z,99272.22
2022-09-15T18:59:29.769Z,99271.13
2022-09-15T19:02:32.507Z,99278.03
2022-09-15T19:05:35.177Z,99278.16
2022-09-15T19:08:40.270Z,99273.09
2022-09-15T19:11:42.749Z,99279.63
2022-09-15T19:14:46.717Z,99280.38
2022-09-15T19:17:49.343Z,99281.69
2022-09-15T19:20:51.822Z,99282.88
2022-09-15T19:23:58.618Z,99273.75
2022-09-15T19:27:01.382Z,99263.38
2022-09-15T19:30:04.570Z,99271.59
2022-09-15T19:33:07.052Z,99274.34
2022-09-15T19:36:27.602Z,99283.25
2022-09-15T19:39:32.875Z,99290.25
2022-09-15T19:42:35.368Z,99289.19
2022-09-15T19:45:38.018Z,99280.63
2022-09-15T19:48:43.813Z,99283.53
2022-09-15T19:51:55.167Z,99278.47
2022-09-15T19:54:59.070Z,99282.69
2022-09-15T19:58:01.982Z,99282.66
2022-09-15T20:01:04.739Z,99283.34
2022-09-15T20:04:07.487Z,99288.63
2022-09-15T20:07:10.042Z,99292.50
2022-09-15T20:10:13.885Z,99289.47
2022-09-15T20:13:17.662Z,99292.25
2022-09-15T20:16:21.492Z,99294.19
2022-09-15T20:19:24.297Z,99290.44
2022-09-15T20:22:27.428Z,99294.16
2022-09-15T20:25:31.243Z,99293.19
2022-09-15T20:28:34.348Z,99294.50
2022-09-15T20:31:36.838Z,99292.69
2022-09-15T20:34:39.378Z,99292.00
2022-09-15T20:37:42.023Z,99289.00
2022-09-15T20:40:45.957Z,99292.00
2022-09-15T20:43:48.519Z,99287.53
2022-09-15T20:46:51.061Z,99289.44
2022-09-15T20:49:53.590Z,99289.94
2022-09-15T20:52:56.128Z,99285.09
2022-09-15T20:56:00.122Z,99295.69
2022-09-15T20:59:04.357Z,99290.41
2022-09-15T21:02:08.070Z,99293.28
2022-09-15T21:05:10.876Z,99302.78
2022-09-15T21:08:13.489Z,99304.72
2022-09-15T21:11:19.844Z,99293.78
2022-09-15T21:14:22.423Z,99296.03
2022-09-15T21:17:25.034Z,99294.84
2022-09-15T21:20:27.582Z,99299.66
2022-09-15T21:23:34.548Z,99292.94
2022-09-15T21:27:00.888Z,99303.06
2022-09-15T21:30:03.562Z,99305.72
2022-09-15T21:33:06.365Z,99297.19
2022-09-15T21:36:10.889Z,99296.38
2022-09-15T21:39:13.573Z,99306.97
2022-09-15T21:42:17.511Z,99306.84
2022-09-15T21:45:20.058Z,99306.50
2022-09-15T21:48:22.707Z,99309.25
2022-09-15T21:51:28.569Z,99327.56
2022-09-15T21:54:31.517Z,99324.56
2022-09-15T21:57:35.420Z,99330.22
2022-09-15T22:00:40.149Z,99333.94
2022-09-15T22:03:43.844Z,99334.84
2022-09-15T22:06:47.328Z,99336.63
2022-09-15T22:09:49.822Z,99343.66
2022-09-15T22:12:54.628Z,99330.00
2022-09-15T22:16:02.038Z,99331.91
2022-09-15T22:19:05.387Z,99338.84
2022-09-15T22:22:08.865Z,99342.59
2022-09-15T22:25:11.399Z,99342.81
2022-09-15T22:28:15.193Z,99347.25
2022-09-15T22:31:19.624Z,99340.88
2022-09-15T22:34:22.124Z,99339.78
2022-09-15T22:37:27.538Z,99336.78
2022-09-15T22:40:30.098Z,99334.88
2022-09-15T22:43:34.253Z,99339.22
2022-09-15T22:46:36.731Z,99341.00
2022-09-15T22:49:39.240Z,99344.84
2022-09-15T22:52:41.797Z,99346.66
2022-09-15T22:55:44.306Z,99344.97
2022-09-15T22:58:49.945Z,99341.25
2022-09-15T23:01:52.576Z,99344.59
2022-09-15T23:04:55.068Z,99343.47
2022-09-15T23:07:57.531Z,99348.72
2022-09-15T23:11:05.994Z,99342.25
2022-09-15T23:14:14.368Z,99348.72
2022-09-15T23:17:16.848Z,99359.75
2022-09-15T23:20:19.338Z,99356.50
2022-09-15T23:23:21.794Z,99352.16
2022-09-15T23:26:25.607Z,99355.66
2022-09-15T23:29:29.419Z,99351.78
2022-09-15T23:32:31.877Z,99349.00
2022-09-15T23:35:34.441Z,99342.03
2022-09-15T23:38:37.668Z,99339.53
2022-09-15T23:41:41.260Z,99345.16
2022-09-15T23:44:45.147Z,99342.50
2022-09-15T23:47:47.602Z,99346.69
2022-09-15T23:50:50.097Z,99338.63
2022-09-15T23:53:53.198Z,99344.53
2022-09-15T23:56:55.692Z,99343.22
2022-09-15T23:59:59.488Z,99345.53
